Pinecliffe, Colorado
Current Conditions -  °F | °C
As of 2:56 PM on Saturday 25 Oct 2014 (Local Time) from KBDU Reporting Station
Clear Clear  
Wind Chill: 79°   Ceiling: Unl
Heat Index: 79°   Visibility: 10mi
Dew Point: 25°   Wind: 6mph
Humidity: 14%   Direction: 130°SE
Pressure: 30.1"   Gusts: NA
Location:  39.93°N, 105.43°W
Report Text: KBDU 252056Z AUTO 13005KT 10SM CLR 26/M04 A3010 RMK AO2
Loading
Personal Weather Stations






























Interactive Weather Map
Tropical Storm Tracking
New forecast layout! Learn more

10-Day Weather Forecast

Advertisements
Track Severe Weather on mobile